Aérodrome :
LOGIN :

S'inscrire | Disclaimer

   EN    FR    IT 

 










Légende :    VFR   VFR Marginal   IFR   IFR Intensif   IFR Très Intensif
Visi : 
Plafond : 
>= 8 km
>= 3000ft
5 à 8 km
1000 à 3000 ft
1500m à 5 km
500 à 1000 ft
800 à 1500m
200 à 500 ft
< 800m
< 200 ft
Symboles :   Orages  Brouillard  Fortes neiges  Fortes précipitations  Vent > 20 kt
SIGMETs :   Divers  Orages  Givrage  Turbulence  Onde Orograph.  Cendres Volcan.






- Altitude de l'aérodrome : 137 ft
- Code IATA : THN


ESGT - Trollhattan-Vanersborg

DERNIER METAR :
  • 170050Z AUTO 20011KT 9999 R15///// R33///// SCT023/// BKN031/// OVC046/// 05/02 Q0984

METARs EXPIRÉS :
  • 170020Z AUTO 22016G27KT 180V260 9999 R15///// R33///// -RA SCT018/// BKN047/// BKN061/// 05/02 Q0984
  • 162350Z AUTO 21012KT 9999 R15///// R33///// BKN019/// 05/03 Q0983
  • 162320Z AUTO 21011KT 9999 R15///// R33///// BKN019/// OVC028/// 05/02 Q0983
  • 162250Z AUTO 20007KT 9999 R15///// R33///// -RA FEW004/// SCT015/// BKN024/// 03/02 Q0984 RERA

Prévision TAF périmée.



MET'MAP, la Météo Aéronautique d'un coup d'oeil ! - Copyright ORBIFLY Décembre 2007 - Disclaimer

ORBIFLY MET'MAP TEAM :

Programmation & Développement : Alexandra Zaïnal
Sur une idée originale de : Baudouin d'Aumeries
Assistance à la programmation : Marc-Olivier Méhu
Soutien technique & logistique : Manuel Goepfert

Contact : metmap@orbifly.com




SOURCES & CREDITS :

   NOAA